Time;durP1;ratioP1;P1;durP2;ratioP2;P2;SDS_P1;SDS_P2;PMS_P1;PMS_P2;Temp;Humidity;BMP_temperature;BMP_pressure;BME280_temperature;BME280_humidity;BME280_pressure;Samples;Min_cycle;Max_cycle;Signal;HPM_P1;HPM_P2
2023/07/16 03:32:33;;;;;;;2.45;1.48;;;19.00;99.90;;;;;;5026311;23;20250;-75
2023/07/16 03:35:18;;;;;;;3.30;1.30;;;18.90;99.90;;;;;;5025362;28;20215;-76
2023/07/16 03:37:45;;;;;;;5.28;1.58;;;18.80;99.90;;;;;;5027727;28;20197;-76
2023/07/16 03:40:16;;;;;;;5.57;1.95;;;18.70;99.90;;;;;;5023326;28;20197;-76
2023/07/16 03:42:45;;;;;;;3.17;1.45;;;18.70;99.90;;;;;;5020787;28;20576;-75
2023/07/16 03:45:13;;;;;;;3.28;1.63;;;18.70;99.90;;;;;;5027424;28;20196;-77
2023/07/16 03:47:41;;;;;;;4.47;1.42;;;18.60;99.90;;;;;;5025709;28;20192;-76
2023/07/16 03:50:08;;;;;;;1.48;1.38;;;18.60;99.90;;;;;;5025339;28;20272;-75
2023/07/16 03:52:35;;;;;;;1.55;1.27;;;18.60;99.90;;;;;;5024432;28;20196;-72
2023/07/16 03:55:03;;;;;;;1.95;1.42;;;18.60;99.90;;;;;;5024939;28;20851;-74
2023/07/16 03:57:30;;;;;;;2.47;1.70;;;18.60;99.90;;;;;;5024411;28;20191;-73
2023/07/16 03:59:57;;;;;;;2.50;1.90;;;18.60;99.90;;;;;;5008032;28;20198;-74
2023/07/16 04:02:25;;;;;;;3.60;1.50;;;18.70;99.90;;;;;;5024745;28;20211;-74
2023/07/16 04:04:52;;;;;;;4.43;2.50;;;18.70;99.90;;;;;;5007434;28;20346;-75
2023/07/16 04:07:19;;;;;;;7.43;2.95;;;18.70;99.90;;;;;;5001936;28;20559;-75
2023/07/16 04:09:47;;;;;;;1.40;1.30;;;18.80;99.90;;;;;;5005199;28;20661;-74
2023/07/16 04:12:14;;;;;;;6.07;3.20;;;18.90;99.90;;;;;;5003814;28;20197;-75
2023/07/16 04:14:41;;;;;;;4.35;2.35;;;18.90;99.90;;;;;;5009195;28;20213;-74
2023/07/16 04:17:08;;;;;;;3.88;2.70;;;19.00;99.90;;;;;;5004901;28;20197;-75
2023/07/16 04:19:35;;;;;;;2.88;1.60;;;19.10;99.90;;;;;;5004690;28;20550;-74
2023/07/16 04:22:02;;;;;;;5.88;3.10;;;19.10;99.90;;;;;;5003323;28;20754;-74
2023/07/16 04:24:29;;;;;;;2.90;1.73;;;19.10;99.90;;;;;;5004505;28;20212;-73
2023/07/16 04:26:58;;;;;;;3.75;1.90;;;19.40;99.90;;;;;;5003343;28;20296;-74
2023/07/16 04:29:25;;;;;;;3.70;2.08;;;19.40;99.90;;;;;;5007056;28;20219;-74
2023/07/16 04:31:52;;;;;;;8.18;2.20;;;19.60;99.90;;;;;;5005895;28;20220;-75
2023/07/16 04:34:19;;;;;;;6.22;1.60;;;19.60;99.90;;;;;;5007366;28;20213;-75
2023/07/16 04:36:46;;;;;;;4.65;1.70;;;19.70;99.90;;;;;;5003365;28;20196;-75
2023/07/16 04:39:13;;;;;;;5.05;1.90;;;20.50;99.90;;;;;;4992000;28;20205;-74
2023/07/16 04:41:40;;;;;;;3.75;1.50;;;21.00;99.90;;;;;;5007100;28;20295;-75
2023/07/16 04:44:07;;;;;;;3.13;2.17;;;21.10;99.90;;;;;;5004813;28;20612;-75
2023/07/16 04:46:34;;;;;;;5.05;2.00;;;21.70;99.90;;;;;;4988274;28;20263;-74
2023/07/16 04:49:02;;;;;;;5.60;1.92;;;21.70;99.90;;;;;;4997341;28;20722;-73
2023/07/16 04:51:29;;;;;;;4.30;1.65;;;21.60;99.90;;;;;;5004360;28;20209;-73
2023/07/16 04:53:56;;;;;;;3.35;1.67;;;21.50;99.90;;;;;;5005401;28;20750;-73
2023/07/16 04:56:23;;;;;;;5.63;2.80;;;21.80;99.90;;;;;;5000779;28;20193;-72
2023/07/16 04:58:50;;;;;;;3.03;1.85;;;22.30;99.90;;;;;;4988469;28;20197;-73
2023/07/16 05:01:17;;;;;;;3.53;1.25;;;22.50;99.90;;;;;;4986241;28;20197;-72
2023/07/16 05:03:44;;;;;;;5.00;2.28;;;22.30;99.90;;;;;;5002537;28;20307;-72
2023/07/16 05:06:11;;;;;;;4.82;1.95;;;22.70;99.90;;;;;;5003800;28;20681;-72
2023/07/16 05:08:38;;;;;;;4.57;2.38;;;22.80;99.90;;;;;;5006785;28;20203;-73
2023/07/16 05:11:05;;;;;;;3.22;1.88;;;23.10;99.90;;;;;;5006681;28;20215;-73
2023/07/16 05:13:32;;;;;;;2.35;1.30;;;23.10;99.90;;;;;;4987751;28;20895;-72
2023/07/16 05:15:59;;;;;;;5.40;2.95;;;23.00;99.90;;;;;;5007352;28;20201;-74
2023/07/16 05:18:26;;;;;;;2.30;1.60;;;23.00;99.90;;;;;;5007076;28;20545;-74
2023/07/16 05:20:53;;;;;;;3.97;2.15;;;23.10;99.90;;;;;;5002897;28;20189;-72
2023/07/16 05:23:20;;;;;;;4.13;1.80;;;23.70;99.90;;;;;;5004252;28;20252;-73
2023/07/16 05:25:49;;;;;;;3.20;1.60;;;24.30;99.90;;;;;;5004636;28;20690;-72
2023/07/16 05:28:19;;;;;;;1.98;1.55;;;24.60;99.90;;;;;;5005810;28;20197;-72
2023/07/16 05:30:46;;;;;;;5.32;1.60;;;24.70;99.90;;;;;;5005359;28;20197;-73
2023/07/16 05:33:13;;;;;;;4.90;1.65;;;24.50;99.90;;;;;;5002709;28;20252;-73
2023/07/16 05:35:40;;;;;;;6.57;2.67;;;25.60;99.90;;;;;;4996424;28;20227;-72
2023/07/16 05:38:07;;;;;;;3.80;2.10;;;26.00;99.60;;;;;;5004346;28;20552;-74
2023/07/16 05:40:34;;;;;;;4.38;1.70;;;25.80;99.80;;;;;;5004781;28;20197;-73
2023/07/16 05:43:01;;;;;;;6.85;1.88;;;25.00;99.90;;;;;;5003516;28;20228;-73
2023/07/16 05:45:29;;;;;;;2.40;1.50;;;25.30;98.60;;;;;;5008005;28;20224;-72
2023/07/16 05:47:56;;;;;;;3.67;2.03;;;24.90;98.70;;;;;;5004481;28;20679;-74
2023/07/16 05:50:23;;;;;;;2.92;1.98;;;24.60;98.40;;;;;;5002690;28;20839;-73
2023/07/16 05:52:57;;;;;;;3.08;1.80;;;25.40;97.90;;;;;;5008046;28;20206;-73
2023/07/16 05:55:24;;;;;;;10.25;2.17;;;25.50;97.20;;;;;;5006366;28;20181;-75
2023/07/16 05:57:51;;;;;;;3.17;2.22;;;25.00;97.70;;;;;;5005477;28;20200;-73
2023/07/16 06:00:18;;;;;;;5.43;2.33;;;25.70;96.80;;;;;;5006450;28;20657;-71
2023/07/16 06:02:45;;;;;;;5.10;2.13;;;25.90;96.50;;;;;;5009215;28;20605;-72
2023/07/16 06:05:12;;;;;;;6.25;2.83;;;25.90;95.60;;;;;;5002646;28;20216;-72
2023/07/16 06:07:39;;;;;;;3.45;2.10;;;26.80;96.80;;;;;;5010949;28;21366;-72
2023/07/16 06:10:07;;;;;;;5.65;2.83;;;26.10;93.60;;;;;;5007998;28;20208;-72
2023/07/16 06:12:34;;;;;;;5.63;2.25;;;26.30;95.60;;;;;;5009755;28;20686;-71
2023/07/16 06:15:01;;;;;;;3.20;1.67;;;26.30;94.70;;;;;;4989674;28;20343;-73
2023/07/16 06:17:28;;;;;;;7.50;3.45;;;26.80;94.00;;;;;;5009762;28;20208;-73
2023/07/16 06:19:55;;;;;;;5.97;2.25;;;27.50;99.90;;;;;;5005066;28;20263;-73
2023/07/16 06:22:22;;;;;;;3.13;1.83;;;27.00;93.10;;;;;;4992667;28;20193;-74
2023/07/16 06:24:49;;;;;;;5.57;2.05;;;26.80;92.40;;;;;;5005799;28;20211;-72
2023/07/16 06:27:16;;;;;;;6.85;4.10;;;26.80;92.80;;;;;;5006249;28;20220;-66
2023/07/16 06:29:43;;;;;;;6.20;2.50;;;27.60;99.90;;;;;;4985739;28;20197;-61
2023/07/16 06:32:10;;;;;;;5.50;2.65;;;26.00;86.30;;;;;;4991098;28;20232;-62
2023/07/16 06:34:37;;;;;;;7.00;2.75;;;26.30;93.10;;;;;;5006274;28;20211;-62
2023/07/16 06:37:04;;;;;;;5.47;2.70;;;26.60;91.30;;;;;;5007175;28;20193;-61
2023/07/16 06:39:32;;;;;;;4.28;2.38;;;26.60;90.30;;;;;;5006421;28;20189;-62
2023/07/16 06:41:59;;;;;;;9.07;3.22;;;28.30;91.10;;;;;;4997329;28;20197;-62
2023/07/16 06:44:29;;;;;;;6.55;2.50;;;28.80;85.60;;;;;;4991579;28;20620;-62
2023/07/16 06:46:57;;;;;;;4.97;2.33;;;28.00;89.60;;;;;;5005316;28;20259;-63
2023/07/16 06:49:24;;;;;;;6.35;2.63;;;28.30;88.00;;;;;;5008209;28;20201;-74
2023/07/16 06:51:51;;;;;;;8.73;3.35;;;27.50;81.80;;;;;;5007165;28;20420;-71
2023/07/16 06:54:18;;;;;;;5.15;2.78;;;26.30;84.20;;;;;;5008870;28;20263;-72
2023/07/16 06:56:45;;;;;;;5.07;2.65;;;26.20;82.40;;;;;;5006705;28;20200;-72
2023/07/16 06:59:15;;;;;;;10.50;5.40;;;25.20;84.00;;;;;;5007250;28;20192;-74
2023/07/16 07:01:42;;;;;;;7.53;2.85;;;28.00;88.00;;;;;;5005583;28;20199;-74
2023/07/16 07:04:09;;;;;;;9.32;3.78;;;29.70;82.20;;;;;;5003023;28;20228;-72
2023/07/16 07:06:39;;;;;;;8.55;4.07;;;28.40;75.30;;;;;;5003494;28;20201;-75
2023/07/16 07:09:06;;;;;;;6.47;3.80;;;29.30;82.60;;;;;;5006694;28;20232;-74
2023/07/16 07:11:33;;;;;;;12.95;5.10;;;28.60;75.50;;;;;;5010916;28;20200;-74
2023/07/16 07:14:00;;;;;;;7.25;3.30;;;27.80;76.80;;;;;;5005921;28;20876;-75
2023/07/16 07:16:28;;;;;;;5.13;2.78;;;26.60;74.90;;;;;;5007319;28;20211;-74
2023/07/16 07:18:56;;;;;;;6.45;3.40;;;26.30;73.00;;;;;;5003460;28;20561;-74
2023/07/16 07:21:24;;;;;;;5.53;2.90;;;25.10;75.70;;;;;;5002628;28;20200;-72
2023/07/16 07:23:51;;;;;;;6.32;3.50;;;25.40;77.10;;;;;;5005220;28;20201;-72
2023/07/16 07:26:18;;;;;;;5.75;2.90;;;25.10;76.90;;;;;;5002039;28;20207;-75
2023/07/16 07:28:45;;;;;;;6.32;3.50;;;24.00;72.80;;;;;;5005561;28;20299;-75
2023/07/16 07:31:12;;;;;;;6.57;3.83;;;23.90;75.60;;;;;;5008992;28;20201;-75
2023/07/16 07:33:39;;;;;;;10.27;4.82;;;23.90;75.90;;;;;;5007927;28;20295;-74
2023/07/16 07:36:06;;;;;;;6.50;2.88;;;25.00;84.70;;;;;;5005031;28;20673;-74
2023/07/16 07:38:33;;;;;;;8.90;2.05;;;24.90;75.90;;;;;;5006173;28;20197;-74
2023/07/16 07:41:01;;;;;;;4.20;2.60;;;27.60;80.90;;;;;;4996277;28;21003;-73
2023/07/16 07:43:28;;;;;;;4.45;2.92;;;27.70;77.70;;;;;;5004804;28;20200;-74
2023/07/16 07:45:55;;;;;;;5.93;2.30;;;28.80;77.50;;;;;;5005340;28;20362;-74
2023/07/16 07:48:22;;;;;;;3.47;2.75;;;30.00;69.30;;;;;;5006199;28;20742;-74
2023/07/16 07:50:49;;;;;;;6.82;2.22;;;29.90;71.50;;;;;;5003342;28;20193;-74
2023/07/16 07:53:19;;;;;;;3.75;2.10;;;30.10;74.10;;;;;;5006554;28;20280;-73
2023/07/16 07:55:46;;;;;;;4.30;2.55;;;30.50;68.30;;;;;;5007526;28;20230;-74
2023/07/16 07:58:13;;;;;;;3.42;2.33;;;32.10;65.20;;;;;;5006339;28;20197;-72
2023/07/16 08:00:40;;;;;;;3.53;2.65;;;31.30;60.00;;;;;;5003337;28;20260;-72
2023/07/16 08:03:07;;;;;;;6.88;3.33;;;29.30;57.60;;;;;;5001840;28;20201;-72
2023/07/16 08:05:34;;;;;;;3.05;2.08;;;27.10;61.70;;;;;;5006415;28;20324;-72
2023/07/16 08:08:01;;;;;;;4.82;2.45;;;27.40;68.90;;;;;;5006188;28;20221;-72
2023/07/16 08:10:28;;;;;;;4.72;2.70;;;27.70;67.20;;;;;;5003917;28;20831;-72
2023/07/16 08:12:55;;;;;;;4.82;2.63;;;26.60;67.60;;;;;;5010272;28;20303;-72
2023/07/16 08:15:22;;;;;;;4.55;2.70;;;27.00;63.20;;;;;;5005895;28;20545;-72
2023/07/16 08:17:49;;;;;;;4.88;2.30;;;28.20;64.70;;;;;;5005205;28;20192;-71
2023/07/16 08:20:16;;;;;;;3.85;2.55;;;27.30;60.00;;;;;;4988995;28;20669;-74
2023/07/16 08:22:43;;;;;;;7.57;2.63;;;25.60;64.30;;;;;;5004227;28;20220;-72
2023/07/16 08:25:10;;;;;;;3.40;2.25;;;25.00;62.90;;;;;;5004273;28;20668;-72
2023/07/16 08:27:37;;;;;;;4.78;2.80;;;25.30;60.70;;;;;;5005416;28;20201;-72
2023/07/16 08:30:05;;;;;;;6.00;2.72;;;26.90;68.60;;;;;;5005080;28;20235;-72
2023/07/16 08:32:32;;;;;;;3.67;2.65;;;26.00;65.10;;;;;;5006046;28;20620;-72
2023/07/16 08:34:59;;;;;;;2.90;2.40;;;26.00;62.50;;;;;;5006411;28;20212;-73
2023/07/16 08:37:26;;;;;;;5.97;2.92;;;27.90;68.20;;;;;;5005098;28;20723;-72
2023/07/16 08:39:55;;;;;;;3.33;2.03;;;30.50;65.10;;;;;;4990224;28;20200;-72
2023/07/16 08:42:23;;;;;;;6.95;2.40;;;30.80;62.50;;;;;;5005179;28;20279;-72
2023/07/16 08:44:51;;;;;;;4.88;2.38;;;31.80;59.50;;;;;;5006807;28;20193;-73
2023/07/16 08:47:18;;;;;;;3.33;2.22;;;31.50;56.60;;;;;;5003976;28;20204;-73
2023/07/16 08:49:58;;;;;;;4.55;2.20;;;31.20;56.90;;;;;;5013490;28;20201;-73
2023/07/16 08:52:27;;;;;;;4.05;2.20;;;32.10;52.80;;;;;;5003060;28;20279;-77
2023/07/16 08:54:54;;;;;;;4.55;2.40;;;32.30;52.70;;;;;;5003814;28;20220;-77
2023/07/16 08:57:21;;;;;;;5.32;2.28;;;33.00;52.60;;;;;;5008778;28;20208;-77
2023/07/16 08:59:49;;;;;;;4.30;2.38;;;33.60;53.50;;;;;;5006224;28;20723;-77
2023/07/16 09:02:23;;;;;;;4.07;1.77;;;33.70;50.50;;;;;;5002068;28;20322;-78
2023/07/16 09:04:51;;;;;;;10.20;2.75;;;32.60;43.20;;;;;;5003975;28;20247;-77
2023/07/16 09:07:19;;;;;;;5.38;2.72;;;29.60;47.50;;;;;;4985797;28;20295;-63
2023/07/16 09:09:59;;;;;;;3.47;2.03;;;29.40;46.40;;;;;;5001652;28;20692;-63
2023/07/16 09:12:29;;;;;;;7.38;2.50;;;27.40;46.80;;;;;;5004224;28;20200;-66
2023/07/16 09:14:56;;;;;;;3.47;2.10;;;27.00;49.30;;;;;;5002944;28;20217;-64
2023/07/16 09:17:25;;;;;;;6.97;3.05;;;28.20;51.00;;;;;;4981152;28;20652;-63
2023/07/16 09:19:53;;;;;;;4.95;2.30;;;30.10;49.50;;;;;;4991889;28;20556;-63
2023/07/16 09:22:20;;;;;;;3.50;2.15;;;29.30;46.30;;;;;;5000816;28;20197;-63
2023/07/16 09:24:48;;;;;;;3.40;2.03;;;29.00;51.10;;;;;;4998943;28;20201;-62
2023/07/16 09:27:15;;;;;;;4.18;2.15;;;29.60;46.80;;;;;;5007400;28;20962;-62
2023/07/16 09:29:42;;;;;;;7.20;2.83;;;27.60;67.10;;;;;;5002409;28;20196;-63
2023/07/16 09:32:09;;;;;;;3.05;2.20;;;27.90;48.10;;;;;;5002977;28;20248;-62
2023/07/16 09:34:36;;;;;;;4.38;2.55;;;29.20;48.00;;;;;;5000172;28;20704;-65
2023/07/16 09:37:05;;;;;;;3.50;2.28;;;30.50;50.10;;;;;;4982439;28;20292;-62
2023/07/16 09:39:34;;;;;;;5.43;2.55;;;30.70;41.70;;;;;;4996388;28;20200;-63
2023/07/16 09:42:02;;;;;;;2.60;1.70;;;31.50;47.50;;;;;;5002624;28;20279;-62
2023/07/16 09:44:29;;;;;;;5.72;2.65;;;32.10;47.20;;;;;;4998437;28;20200;-61
2023/07/16 09:46:57;;;;;;;3.70;1.90;;;32.20;43.00;;;;;;5003059;28;20263;-62
2023/07/16 09:49:25;;;;;;;3.55;2.53;;;31.40;38.40;;;;;;5007016;28;20205;-62
2023/07/16 09:51:56;;;;;;;3.60;2.00;;;31.20;43.40;;;;;;5002175;28;20710;-61
2023/07/16 09:54:27;;;;;;;3.47;2.60;;;31.30;41.90;;;;;;4999694;28;20280;-66
2023/07/16 09:57:03;;;;;;;4.13;2.60;;;32.20;39.90;;;;;;5003296;28;20185;-62
2023/07/16 09:59:36;;;;;;;4.40;2.80;;;31.50;42.40;;;;;;4989079;28;20195;-74
2023/07/16 10:02:07;;;;;;;4.53;2.88;;;32.20;39.70;;;;;;5006320;28;20200;-61
2023/07/16 10:04:39;;;;;;;4.43;3.63;;;33.10;38.20;;;;;;5004742;28;20977;-61
2023/07/16 10:07:07;;;;;;;6.93;3.75;;;31.80;38.50;;;;;;5004629;28;20232;-63
2023/07/16 10:09:41;;;;;;;7.85;2.95;;;31.20;38.00;;;;;;5002149;28;20288;-70
2023/07/16 10:12:15;;;;;;;5.38;2.63;;;29.70;37.90;;;;;;5004408;28;20235;-70
2023/07/16 10:14:47;;;;;;;5.18;2.67;;;28.30;37.00;;;;;;5004177;28;20248;-62
2023/07/16 10:17:19;;;;;;;7.00;2.30;;;27.20;39.10;;;;;;5005481;28;20553;-73
2023/07/16 10:20:11;;;;;;;7.93;3.42;;;28.60;40.80;;;;;;5006224;28;20631;-74
2023/07/16 10:22:46;;;;;;;6.28;3.03;;;28.70;39.30;;;;;;5000278;28;20207;-74
2023/07/16 10:25:19;;;;;;;6.25;3.40;;;27.90;40.90;;;;;;5005486;28;20188;-74
2023/07/16 10:27:47;;;;;;;9.35;4.32;;;27.10;40.50;;;;;;4987109;28;20295;-72
2023/07/16 10:30:15;;;;;;;5.18;2.63;;;28.10;38.30;;;;;;5015299;28;20201;-72
2023/07/16 10:32:42;;;;;;;6.25;2.70;;;28.80;38.30;;;;;;4988269;28;20232;-72
2023/07/16 10:35:10;;;;;;;9.10;3.35;;;30.40;40.10;;;;;;5004841;28;20239;-72
2023/07/16 10:37:38;;;;;;;5.32;3.20;;;29.10;38.70;;;;;;5006461;28;20192;-71
2023/07/16 10:40:13;;;;;;;5.03;2.70;;;28.50;39.50;;;;;;5007301;28;20232;-73
2023/07/16 10:42:46;;;;;;;4.15;2.42;;;29.20;41.10;;;;;;5005753;28;20193;-72
2023/07/16 10:45:13;;;;;;;5.20;2.97;;;30.20;36.30;;;;;;4991864;28;20212;-79
2023/07/16 10:47:52;;;;;;;5.22;2.10;;;30.70;35.30;;;;;;5005371;28;20208;-72
2023/07/16 10:50:23;;;;;;;5.22;3.00;;;28.30;36.90;;;;;;5006892;28;20212;-73
2023/07/16 10:52:54;;;;;;;4.63;2.95;;;28.70;37.90;;;;;;5008169;28;20224;-72
2023/07/16 10:55:22;;;;;;;5.95;3.45;;;29.20;39.90;;;;;;5008794;28;20528;-70
2023/07/16 10:57:50;;;;;;;6.53;2.65;;;29.40;57.70;;;;;;5007927;28;20215;-71
2023/07/16 11:00:17;;;;;;;4.60;2.63;;;28.50;39.00;;;;;;5008811;28;20192;-74
2023/07/16 11:02:46;;;;;;;5.35;3.22;;;28.60;38.10;;;;;;5007715;28;20204;-76
2023/07/16 11:05:14;;;;;;;3.70;2.55;;;28.40;37.10;;;;;;5006749;28;20221;-74
2023/07/16 11:07:45;;;;;;;5.57;2.22;;;28.00;36.80;;;;;;5008897;28;20776;-74
2023/07/16 11:10:18;;;;;;;3.78;1.85;;;27.50;38.80;;;;;;5006186;28;20282;-74
2023/07/16 11:12:50;;;;;;;4.20;2.35;;;26.90;37.40;;;;;;4994552;28;20201;-73
2023/07/16 11:15:17;;;;;;;2.95;2.13;;;27.00;38.40;;;;;;5009544;28;20212;-73
2023/07/16 11:17:50;;;;;;;4.53;2.58;;;27.70;38.30;;;;;;5013177;28;20200;-72
2023/07/16 11:20:20;;;;;;;3.03;2.45;;;27.80;38.40;;;;;;5009411;28;20876;-72
2023/07/16 11:22:47;;;;;;;5.57;2.75;;;28.80;38.70;;;;;;5008736;28;20592;-63
2023/07/16 11:25:14;;;;;;;4.85;2.33;;;28.70;38.00;;;;;;5005997;28;20287;-63
2023/07/16 11:27:42;;;;;;;4.97;2.30;;;29.00;36.30;;;;;;5010978;28;20201;-72
2023/07/16 11:30:09;;;;;;;5.90;2.92;;;28.70;36.50;;;;;;5008573;28;20624;-74
2023/07/16 11:32:42;;;;;;;5.93;2.60;;;27.90;37.30;;;;;;5006767;28;20229;-74
2023/07/16 11:35:16;;;;;;;5.00;3.22;;;27.90;37.10;;;;;;5005829;28;20221;-72
2023/07/16 11:37:44;;;;;;;4.53;3.08;;;28.90;36.50;;;;;;5007315;28;20188;-71
2023/07/16 11:40:18;;;;;;;6.80;2.72;;;27.90;36.60;;;;;;5005596;28;20253;-63
2023/07/16 11:42:45;;;;;;;3.97;2.05;;;28.50;37.40;;;;;;5007019;28;20185;-65
2023/07/16 11:45:26;;;;;;;4.53;2.40;;;29.60;35.40;;;;;;4991226;28;20211;-63
2023/07/16 11:47:53;;;;;;;3.70;2.25;;;28.90;34.20;;;;;;5001563;28;20193;-66
2023/07/16 11:50:21;;;;;;;3.55;1.80;;;28.00;35.80;;;;;;5006248;28;20221;-67
2023/07/16 11:52:55;;;;;;;3.45;2.28;;;29.00;35.80;;;;;;5002691;28;20864;-66
2023/07/16 11:55:23;;;;;;;8.18;2.17;;;29.20;31.70;;;;;;5004272;28;20282;-63
2023/07/16 11:57:50;;;;;;;5.38;2.67;;;28.50;33.40;;;;;;5003555;28;20560;-64
2023/07/16 12:00:17;;;;;;;3.33;2.60;;;29.20;36.50;;;;;;5005481;28;20201;-66
2023/07/16 12:02:50;;;;;;;3.40;1.80;;;28.80;35.00;;;;;;5006858;28;20193;-62
2023/07/16 12:05:19;;;;;;;2.83;2.20;;;28.00;35.50;;;;;;5008215;28;20623;-63
2023/07/16 12:07:54;;;;;;;4.97;2.58;;;28.30;35.20;;;;;;5008782;28;20530;-68
2023/07/16 12:10:21;;;;;;;5.90;3.20;;;28.20;37.10;;;;;;5007980;28;20212;-63
2023/07/16 12:12:48;;;;;;;6.68;2.65;;;27.90;56.80;;;;;;4990167;28;20236;-62
2023/07/16 12:15:15;;;;;;;3.58;1.95;;;28.00;38.20;;;;;;5006133;28;20216;-64
2023/07/16 12:17:42;;;;;;;4.28;2.60;;;27.70;35.10;;;;;;5007759;28;20756;-65
2023/07/16 12:20:10;;;;;;;6.35;2.45;;;27.70;37.80;;;;;;5009317;28;20189;-62
2023/07/16 12:22:37;;;;;;;2.38;1.83;;;27.50;38.00;;;;;;5006537;28;20605;-63
2023/07/16 12:25:04;;;;;;;4.10;2.60;;;27.10;37.60;;;;;;5005007;28;20193;-68
2023/07/16 12:27:31;;;;;;;3.63;1.80;;;26.40;35.20;;;;;;5005797;28;20205;-64
2023/07/16 12:30:01;;;;;;;3.17;2.05;;;26.30;36.80;;;;;;5007011;28;20200;-64
2023/07/16 12:32:28;;;;;;;5.38;2.35;;;26.60;37.10;;;;;;5004920;28;20256;-63
2023/07/16 12:34:57;;;;;;;2.83;1.90;;;26.80;38.70;;;;;;5005710;28;20673;-64
2023/07/16 12:37:27;;;;;;;3.78;1.85;;;26.50;37.30;;;;;;5006008;28;20250;-68
2023/07/16 12:39:54;;;;;;;3.80;2.35;;;26.60;38.50;;;;;;4979943;28;20285;-62
2023/07/16 12:42:21;;;;;;;3.40;2.08;;;27.30;39.10;;;;;;5005458;28;20206;-62
2023/07/16 12:44:50;;;;;;;3.90;2.22;;;27.80;39.00;;;;;;5005656;28;20193;-61
2023/07/16 12:47:17;;;;;;;3.75;2.20;;;28.40;38.00;;;;;;4992133;28;20670;-62
2023/07/16 12:49:44;;;;;;;5.50;2.63;;;28.10;38.40;;;;;;5006607;28;20193;-63
2023/07/16 12:52:11;;;;;;;4.00;2.10;;;28.20;37.30;;;;;;5007900;28;20901;-62
2023/07/16 12:54:38;;;;;;;3.25;1.90;;;27.80;37.60;;;;;;5003178;28;20197;-59
2023/07/16 12:57:06;;;;;;;3.15;1.70;;;27.70;37.90;;;;;;5004582;28;20212;-59
2023/07/16 12:59:33;;;;;;;6.13;2.22;;;27.20;38.10;;;;;;5000736;28;20755;-59
2023/07/16 13:02:00;;;;;;;3.92;2.22;;;27.20;38.00;;;;;;4983258;28;20201;-60
2023/07/16 13:04:26;;;;;;;2.72;2.00;;;27.90;38.80;;;;;;5015080;28;20243;-61
2023/07/16 13:06:53;;;;;;;3.15;1.90;;;28.20;38.20;;;;;;4998297;28;20229;-64
2023/07/16 13:09:20;;;;;;;8.00;2.65;;;28.20;38.20;;;;;;4998723;28;20201;-61
2023/07/16 13:11:47;;;;;;;4.75;2.38;;;28.20;37.70;;;;;;5003828;28;20646;-61
2023/07/16 13:14:16;;;;;;;4.18;2.28;;;28.10;37.80;;;;;;5007341;28;20969;-64
2023/07/16 13:16:44;;;;;;;5.18;2.03;;;28.00;37.20;;;;;;5003320;28;20209;-63
2023/07/16 13:19:12;;;;;;;2.80;1.63;;;27.20;36.80;;;;;;5003853;28;20197;-65
2023/07/16 13:21:39;;;;;;;2.22;1.60;;;26.60;36.60;;;;;;5004553;28;20190;-65
2023/07/16 13:24:06;;;;;;;3.30;2.10;;;26.30;36.20;;;;;;5005374;28;20697;-62
2023/07/16 13:26:33;;;;;;;4.93;2.50;;;26.60;40.30;;;;;;5005376;28;20661;-62
2023/07/16 13:29:00;;;;;;;6.57;2.60;;;26.70;38.30;;;;;;4987204;28;20236;-62
2023/07/16 13:31:27;;;;;;;3.30;2.25;;;27.10;39.30;;;;;;5006060;28;20676;-61
2023/07/16 13:33:54;;;;;;;6.15;2.38;;;27.20;39.50;;;;;;5005013;28;20662;-63
2023/07/16 13:36:22;;;;;;;3.63;2.28;;;27.70;38.30;;;;;;4987912;28;20227;-73
2023/07/16 13:38:49;;;;;;;4.80;2.50;;;27.60;37.50;;;;;;5003545;28;20197;-72
2023/07/16 13:41:16;;;;;;;6.60;2.80;;;27.10;34.60;;;;;;5010674;28;20205;-73
2023/07/16 13:43:43;;;;;;;3.42;2.22;;;26.90;38.10;;;;;;5005423;28;20715;-72
2023/07/16 13:46:10;;;;;;;3.58;2.30;;;26.50;58.40;;;;;;4989257;28;20212;-72
2023/07/16 13:48:38;;;;;;;6.25;2.00;;;26.80;39.40;;;;;;5004955;28;20189;-74
2023/07/16 13:51:24;;;;;;;4.72;2.17;;;26.80;38.60;;;;;;5005360;28;20215;-72
2023/07/16 13:53:51;;;;;;;4.40;1.90;;;26.10;38.30;;;;;;5006131;28;20208;-72
2023/07/16 13:56:18;;;;;;;6.07;2.20;;;26.50;38.50;;;;;;5006569;28;20699;-71
2023/07/16 13:58:46;;;;;;;3.55;2.05;;;26.90;39.90;;;;;;5006489;28;20201;-71
2023/07/16 14:01:13;;;;;;;6.68;2.10;;;26.80;37.80;;;;;;5006602;28;20661;-75
2023/07/16 14:03:40;;;;;;;4.05;2.47;;;26.20;38.60;;;;;;4998332;28;20229;-70
2023/07/16 14:06:07;;;;;;;3.40;2.15;;;26.10;38.00;;;;;;4995555;28;20772;-72
2023/07/16 14:08:35;;;;;;;4.22;2.25;;;26.70;38.80;;;;;;5006526;28;20201;-73
2023/07/16 14:11:02;;;;;;;7.53;2.30;;;26.40;39.20;;;;;;5006248;28;20254;-70
2023/07/16 14:13:30;;;;;;;3.60;1.88;;;26.30;38.70;;;;;;5003555;28;20212;-77
2023/07/16 14:15:57;;;;;;;4.78;2.55;;;26.10;37.70;;;;;;5001388;28;20212;-74
2023/07/16 14:18:24;;;;;;;2.65;2.00;;;26.40;40.50;;;;;;5005173;28;20221;-71
2023/07/16 14:20:51;;;;;;;6.32;2.45;;;26.40;40.30;;;;;;5004963;28;20213;-74
2023/07/16 14:23:18;;;;;;;5.57;2.28;;;26.70;38.40;;;;;;4991077;28;20285;-72
2023/07/16 14:25:46;;;;;;;3.72;2.30;;;26.70;37.50;;;;;;5011946;28;20293;-71
2023/07/16 14:28:13;;;;;;;3.63;2.63;;;26.50;39.00;;;;;;5009470;28;20608;-71
2023/07/16 14:30:40;;;;;;;7.15;3.97;;;27.00;38.30;;;;;;5009279;28;20205;-72
2023/07/16 14:33:07;;;;;;;5.45;2.65;;;26.60;39.40;;;;;;5010538;28;20229;-72
2023/07/16 14:35:35;;;;;;;3.13;2.28;;;26.60;58.80;;;;;;5010031;28;20192;-72
2023/07/16 14:38:04;;;;;;;5.95;2.95;;;26.40;38.20;;;;;;5008278;28;20312;-72
2023/07/16 14:40:32;;;;;;;3.78;2.50;;;26.10;38.30;;;;;;5008750;28;20215;-71
2023/07/16 14:42:59;;;;;;;4.45;2.47;;;26.30;41.50;;;;;;5009839;28;20193;-73
2023/07/16 14:45:26;;;;;;;6.25;2.92;;;26.50;39.30;;;;;;5005725;28;20280;-72
2023/07/16 14:47:53;;;;;;;4.43;3.40;;;25.90;38.80;;;;;;5011930;28;20328;-72
2023/07/16 14:50:20;;;;;;;8.00;2.97;;;25.80;39.80;;;;;;5009440;28;20193;-74
2023/07/16 14:52:47;;;;;;;11.73;4.15;;;25.90;39.20;;;;;;5008467;28;20303;-74
2023/07/16 14:55:15;;;;;;;7.05;4.32;;;26.30;39.40;;;;;;5016717;28;20201;-73
2023/07/16 14:57:42;;;;;;;2.50;2.00;;;26.80;39.00;;;;;;4990105;28;20592;-74
2023/07/16 15:00:11;;;;;;;7.65;2.47;;;26.50;38.20;;;;;;5009638;28;20224;-73
2023/07/16 15:02:38;;;;;;;3.42;2.58;;;26.10;37.70;;;;;;5010620;28;20668;-75
2023/07/16 15:05:06;;;;;;;3.40;2.15;;;25.80;38.60;;;;;;5004650;28;20272;-73
2023/07/16 15:07:35;;;;;;;4.25;2.95;;;25.90;38.00;;;;;;5018434;28;20205;-73
2023/07/16 15:10:03;;;;;;;5.35;2.50;;;26.10;60.10;;;;;;5008327;28;20204;-74
2023/07/16 15:12:31;;;;;;;8.57;3.67;;;26.50;39.00;;;;;;4989813;28;20698;-73
2023/07/16 15:14:58;;;;;;;6.07;3.35;;;26.50;39.00;;;;;;5008771;28;20557;-73
2023/07/16 15:17:25;;;;;;;4.45;2.60;;;26.70;39.50;;;;;;5009503;28;20205;-73
2023/07/16 15:19:52;;;;;;;7.40;3.55;;;26.80;38.00;;;;;;5006231;28;20761;-74
2023/07/16 15:22:20;;;;;;;2.55;2.08;;;27.00;39.90;;;;;;5007934;28;20791;-76
2023/07/16 15:24:47;;;;;;;8.13;2.70;;;26.90;37.50;;;;;;5007750;28;20244;-74
2023/07/16 15:27:15;;;;;;;3.58;2.22;;;26.90;37.20;;;;;;5005733;28;20205;-62
2023/07/16 15:29:43;;;;;;;2.13;1.92;;;26.80;37.70;;;;;;5002365;28;20205;-62
2023/07/16 15:32:10;;;;;;;2.78;2.35;;;27.00;38.40;;;;;;4994444;28;20249;-64
2023/07/16 15:34:37;;;;;;;3.08;2.65;;;27.00;58.80;;;;;;4992094;28;20833;-65
2023/07/16 15:37:05;;;;;;;3.35;1.95;;;27.30;57.30;;;;;;5005223;28;20739;-64
2023/07/16 15:39:32;;;;;;;5.40;2.22;;;27.10;37.20;;;;;;4993751;28;20204;-62
2023/07/16 15:41:59;;;;;;;4.75;2.67;;;27.50;36.40;;;;;;5006844;28;20288;-64
2023/07/16 15:44:26;;;;;;;3.88;2.08;;;27.00;37.60;;;;;;5005894;28;20205;-61
2023/07/16 15:46:53;;;;;;;5.90;2.40;;;27.00;38.50;;;;;;5004507;28;20661;-62
2023/07/16 15:49:20;;;;;;;4.18;2.13;;;26.70;37.30;;;;;;5004852;28;20307;-67
2023/07/16 15:51:47;;;;;;;6.07;2.38;;;26.30;37.60;;;;;;5007745;28;20200;-62
2023/07/16 15:54:15;;;;;;;6.20;2.42;;;26.20;37.40;;;;;;5000810;28;20194;-61
2023/07/16 15:56:42;;;;;;;7.60;4.28;;;26.10;36.80;;;;;;5002693;28;20217;-61
2023/07/16 15:59:09;;;;;;;5.97;3.72;;;26.20;38.20;;;;;;5007239;28;20684;-60
2023/07/16 16:01:36;;;;;;;5.25;3.45;;;26.40;39.20;;;;;;5003204;28;20287;-63
2023/07/16 16:04:03;;;;;;;10.00;2.55;;;26.50;39.20;;;;;;5005600;28;20213;-63
2023/07/16 16:06:31;;;;;;;5.05;2.90;;;26.50;37.50;;;;;;5004014;28;20625;-61
2023/07/16 16:08:58;;;;;;;6.60;2.85;;;26.50;38.70;;;;;;5002135;28;20203;-63
2023/07/16 16:11:25;;;;;;;4.47;2.55;;;26.70;39.20;;;;;;5004849;28;20193;-64
2023/07/16 16:13:53;;;;;;;7.68;2.95;;;26.60;38.80;;;;;;5011821;28;20212;-65
2023/07/16 16:16:20;;;;;;;3.17;1.85;;;26.40;38.90;;;;;;5005996;28;20696;-66
2023/07/16 16:18:48;;;;;;;3.67;2.35;;;26.40;37.20;;;;;;5002922;28;20279;-67
2023/07/16 16:21:15;;;;;;;7.55;2.50;;;26.20;37.90;;;;;;5002088;28;20628;-62